Time;durP1;ratioP1;P1;durP2;ratioP2;P2;SDS_P1;SDS_P2;PMS_P1;PMS_P2;Temp;Humidity;BMP_temperature;BMP_pressure;BME280_temperature;BME280_humidity;BME280_pressure;Samples;Min_cycle;Max_cycle;Signal;HPM_P1;HPM_P2
2021/10/28 01:36:24;;;;;;;22.13;3.03;;;26.00;42.50;;;;;;5115007;27;20923;-61
2021/10/28 01:38:52;;;;;;;12.02;3.30;;;25.70;28.40;;;;;;5109969;28;20072;-61
2021/10/28 01:41:19;;;;;;;17.98;3.42;;;25.40;28.30;;;;;;5110783;28;20046;-62
2021/10/28 01:43:46;;;;;;;22.95;3.17;;;25.40;29.10;;;;;;5108706;28;20090;-63
2021/10/28 01:46:13;;;;;;;15.35;3.35;;;25.30;29.00;;;;;;5110086;28;20075;-63
2021/10/28 01:48:41;;;;;;;28.73;4.35;;;25.20;29.70;;;;;;5108515;28;20541;-62
2021/10/28 01:51:10;;;;;;;25.20;4.30;;;25.10;29.90;;;;;;5109846;28;20159;-62
2021/10/28 01:53:38;;;;;;;27.55;4.60;;;25.00;29.60;;;;;;5112099;28;20091;-62
2021/10/28 01:56:07;;;;;;;37.90;4.70;;;25.00;30.10;;;;;;5109830;28;20104;-61
2021/10/28 01:58:34;;;;;;;46.22;4.80;;;24.90;30.00;;;;;;5092413;28;20087;-62
2021/10/28 02:01:01;;;;;;;29.60;4.95;;;24.80;30.70;;;;;;5110370;28;20080;-61
2021/10/28 02:03:27;;;;;;;44.50;4.85;;;24.70;31.00;;;;;;5108414;28;20076;-61
2021/10/28 02:05:55;;;;;;;57.25;5.95;;;24.60;31.60;;;;;;5125421;27;20112;-62
2021/10/28 02:08:21;;;;;;;46.97;5.32;;;24.60;32.20;;;;;;5109972;28;20088;-61
2021/10/28 02:10:48;;;;;;;63.03;6.25;;;24.10;56.60;;;;;;5077644;28;20083;-62
2021/10/28 02:13:14;;;;;;;48.28;6.07;;;24.00;32.90;;;;;;5114001;28;20047;-64
2021/10/28 02:15:41;;;;;;;63.13;7.10;;;24.40;47.20;;;;;;5113765;28;20163;-62
2021/10/28 02:18:08;;;;;;;51.85;6.68;;;24.20;48.50;;;;;;5112467;28;20027;-62
2021/10/28 02:20:35;;;;;;;68.97;8.55;;;24.10;32.90;;;;;;5112602;28;20413;-62
2021/10/28 02:23:03;;;;;;;48.00;7.45;;;24.00;33.10;;;;;;5112225;28;20050;-61
2021/10/28 02:25:29;;;;;;;56.13;7.05;;;23.30;41.30;;;;;;5114684;28;20143;-61
2021/10/28 02:27:55;;;;;;;56.63;7.63;;;23.90;44.50;;;;;;5114625;28;20478;-62
2021/10/28 02:30:22;;;;;;;73.13;8.27;;;23.90;45.70;;;;;;5112340;28;20099;-62
2021/10/28 02:32:50;;;;;;;49.35;9.25;;;23.70;49.60;;;;;;5112266;28;20106;-62
2021/10/28 02:35:17;;;;;;;49.03;8.55;;;23.70;59.60;;;;;;5113026;28;20048;-63
2021/10/28 02:37:44;;;;;;;73.43;10.88;;;23.90;48.40;;;;;;5112287;28;20073;-64
2021/10/28 02:40:12;;;;;;;52.25;8.38;;;23.50;50.60;;;;;;5095711;28;20075;-64
2021/10/28 02:42:38;;;;;;;70.45;9.50;;;23.70;31.10;;;;;;5113131;28;20058;-63
2021/10/28 02:45:06;;;;;;;62.72;9.70;;;23.70;31.70;;;;;;5112053;28;20076;-61
2021/10/28 02:47:33;;;;;;;54.25;9.23;;;23.20;40.00;;;;;;5099696;28;20093;-64
2021/10/28 02:50:00;;;;;;;59.22;9.73;;;;;;;;;;5099667;28;20034;-65
2021/10/28 02:52:26;;;;;;;73.90;9.95;;;;;;;;;;5099826;28;20085;-62
2021/10/28 02:54:54;;;;;;;65.25;10.15;;;;;;;;;;5100994;28;20028;-61
2021/10/28 02:57:21;;;;;;;43.38;9.77;;;;;;;;;;5100867;28;20089;-61
2021/10/28 02:59:47;;;;;;;79.72;11.07;;;;;;;;;;5100050;28;20038;-62
2021/10/28 03:02:14;;;;;;;59.90;10.90;;;23.80;45.00;;;;;;5099681;28;20109;-61
2021/10/28 03:04:40;;;;;;;74.10;11.35;;;23.40;33.00;;;;;;5099752;28;20050;-61
2021/10/28 03:07:06;;;;;;;67.35;10.15;;;23.30;34.00;;;;;;5100101;28;20089;-61
2021/10/28 03:09:33;;;;;;;75.10;11.07;;;23.30;33.80;;;;;;5099885;28;20080;-62
2021/10/28 03:12:01;;;;;;;85.25;11.07;;;23.20;34.20;;;;;;5098609;28;20146;-62
2021/10/28 03:19:42;;;;;;;67.10;13.80;;;23.10;35.40;;;;;;5094050;28;20183;-62
2021/10/28 03:27:38;;;;;;;82.90;13.32;;;23.00;59.60;;;;;;5092473;28;20681;-61
2021/10/28 03:30:06;;;;;;;85.55;12.55;;;;;;;;;;5090451;28;20026;-61
2021/10/28 03:32:33;;;;;;;79.60;11.48;;;;;;;;;;5090238;28;20019;-63
2021/10/28 03:35:00;;;;;;;68.15;12.15;;;;;;;;;;5089549;28;20458;-62
2021/10/28 03:37:32;;;;;;;79.82;13.38;;;22.50;35.20;;;;;;5090247;28;20024;-62
2021/10/28 03:43:08;;;;;;;64.82;12.18;;;;;;;;;;5090242;28;20379;-63
2021/10/28 04:04:44;;;;;;;80.07;17.45;;;22.30;61.00;;;;;;5089540;28;20075;-62
2021/10/28 04:29:10;;;;;;;62.97;14.68;;;21.80;45.70;;;;;;5088109;28;20086;-62
2021/10/28 04:31:37;;;;;;;83.63;13.65;;;22.20;35.80;;;;;;5087872;28;20165;-63
2021/10/28 04:34:09;;;;;;;68.53;14.20;;;22.10;35.40;;;;;;5088533;28;20545;-62
2021/10/28 04:36:36;;;;;;;71.60;14.15;;;22.00;35.60;;;;;;5086196;28;20369;-63
2021/10/28 04:39:08;;;;;;;63.35;12.73;;;22.00;36.20;;;;;;5086538;28;20475;-63
2021/10/28 04:41:37;;;;;;;85.88;15.10;;;21.30;60.60;;;;;;5087387;28;20417;-61
2021/10/28 04:44:07;;;;;;;59.10;13.02;;;21.70;42.40;;;;;;5086598;28;20036;-64
2021/10/28 04:46:33;;;;;;;75.72;14.85;;;21.70;36.50;;;;;;5086381;28;20460;-62
2021/10/28 04:49:00;;;;;;;72.57;13.88;;;21.80;37.00;;;;;;5085603;28;20476;-63
2021/10/28 04:51:26;;;;;;;67.78;13.15;;;21.80;36.90;;;;;;5090570;28;20541;-62
2021/10/28 04:53:52;;;;;;;75.25;14.32;;;21.90;53.10;;;;;;5086539;28;20441;-63
2021/10/28 04:56:19;;;;;;;82.80;13.00;;;21.70;37.70;;;;;;5070468;28;20604;-62
2021/10/28 04:58:45;;;;;;;;;;;21.70;38.10;;;;;;5088219;28;20112;-61
2021/10/28 05:01:11;;;;;;;73.38;13.38;;;21.60;37.80;;;;;;5087139;28;19957;-63
2021/10/28 05:03:37;;;;;;;;;;;21.70;37.80;;;;;;5087637;28;20075;-63
2021/10/28 05:06:04;;;;;;;67.10;12.38;;;21.60;37.30;;;;;;5087608;28;20372;-63
2021/10/28 05:08:32;;;;;;;66.13;12.10;;;21.50;58.40;;;;;;5085588;28;20437;-62
2021/10/28 05:10:58;;;;;;;79.82;12.90;;;21.60;46.30;;;;;;5073294;28;20150;-62
2021/10/28 05:13:25;;;;;;;59.22;13.25;;;21.40;58.40;;;;;;5073343;28;20039;-63
2021/10/28 05:15:54;;;;;;;61.13;11.65;;;21.50;53.10;;;;;;5074681;28;20558;-63
2021/10/28 05:18:25;;;;;;;68.03;11.38;;;21.50;37.10;;;;;;5073865;28;20527;-62
2021/10/28 05:20:52;;;;;;;74.63;13.52;;;;;;;;;;5074373;28;20071;-62
2021/10/28 05:23:19;;;;;;;76.18;15.57;;;21.40;36.10;;;;;;5073767;28;20554;-60
2021/10/28 05:25:50;;;;;;;80.32;17.48;;;21.80;45.70;;;;;;5056786;28;20115;-61
2021/10/28 05:28:17;;;;;;;93.65;18.20;;;21.40;36.30;;;;;;5071125;28;20073;-63
2021/10/28 05:30:44;;;;;;;75.80;19.80;;;21.40;36.70;;;;;;5074447;28;20146;-63
2021/10/28 05:33:10;;;;;;;94.85;22.05;;;21.40;36.70;;;;;;5072963;28;20160;-62
2021/10/28 05:35:37;;;;;;;74.32;20.55;;;21.40;36.80;;;;;;5075173;28;20123;-63
2021/10/28 05:38:03;;;;;;;81.57;21.65;;;21.40;36.80;;;;;;5072998;28;20081;-62
2021/10/28 05:40:30;;;;;;;76.65;19.80;;;21.30;36.70;;;;;;5056989;28;20183;-64
2021/10/28 05:42:56;;;;;;;81.47;25.48;;;21.20;36.90;;;;;;5074222;28;20073;-62
2021/10/28 05:45:22;;;;;;;;;;;21.20;37.40;;;;;;5074048;28;20099;-62
2021/10/28 05:47:49;;;;;;;76.25;20.17;;;21.10;37.60;;;;;;5073845;28;20398;-61
2021/10/28 05:50:19;;;;;;;67.05;17.17;;;21.10;37.80;;;;;;5074891;28;20932;-64
2021/10/28 05:52:48;;;;;;;51.55;16.25;;;21.40;53.90;;;;;;5074626;28;20461;-62
2021/10/28 05:55:15;;;;;;;48.95;14.40;;;21.00;37.80;;;;;;5072216;28;20167;-62
2021/10/28 05:57:42;;;;;;;50.70;16.48;;;20.70;51.50;;;;;;5072370;28;20091;-62
2021/10/28 06:00:10;;;;;;;66.15;19.58;;;20.90;38.70;;;;;;5073486;28;20072;-62
2021/10/28 06:02:36;;;;;;;67.07;18.23;;;20.90;38.80;;;;;;5074210;28;20441;-61
2021/10/28 06:05:04;;;;;;;60.22;14.90;;;20.70;43.10;;;;;;5072731;28;20442;-61
2021/10/28 06:07:32;;;;;;;50.28;11.82;;;20.80;37.90;;;;;;5055899;28;20093;-62
2021/10/28 06:09:58;;;;;;;44.05;10.18;;;20.00;72.50;;;;;;5072822;28;20088;-61
2021/10/28 06:12:27;;;;;;;53.63;10.70;;;20.50;56.10;;;;;;5071877;28;20021;-63
2021/10/28 06:14:56;;;;;;;44.65;8.80;;;20.70;38.70;;;;;;5072513;28;20096;-62
2021/10/28 06:17:31;;;;;;;35.08;8.25;;;20.70;75.50;;;;;;5072331;28;20089;-61
2021/10/28 06:19:59;;;;;;;37.60;8.85;;;20.30;54.50;;;;;;5055884;28;20080;-62
2021/10/28 06:22:26;;;;;;;34.40;8.25;;;20.70;56.50;;;;;;5054884;28;20489;-62
2021/10/28 06:24:53;;;;;;;37.85;8.23;;;20.60;39.60;;;;;;5073660;28;20518;-61
2021/10/28 06:27:19;;;;;;;36.97;9.00;;;;;;;;;;5053831;28;20088;-58
2021/10/28 06:29:46;;;;;;;28.33;7.85;;;20.20;65.00;;;;;;5071199;28;20046;-61
2021/10/28 06:32:13;;;;;;;29.13;7.15;;;20.50;39.80;;;;;;5075647;28;20077;-62
2021/10/28 06:34:42;;;;;;;26.27;7.22;;;20.50;40.20;;;;;;5073465;28;20090;-62
2021/10/28 06:37:10;;;;;;;32.67;6.95;;;20.40;40.00;;;;;;5073254;28;20099;-62
2021/10/28 06:39:37;;;;;;;34.05;6.50;;;20.40;39.90;;;;;;5075277;28;20076;-61
2021/10/28 06:42:05;;;;;;;26.30;5.93;;;20.40;40.00;;;;;;5054242;28;20077;-62
2021/10/28 06:44:31;;;;;;;31.13;5.88;;;20.40;40.10;;;;;;5055069;28;20065;-62
2021/10/28 06:46:58;;;;;;;26.25;5.22;;;19.90;53.70;;;;;;5072287;28;20064;-61
2021/10/28 06:49:29;;;;;;;26.60;5.32;;;19.20;46.20;;;;;;5055878;28;20868;-62
2021/10/28 06:51:55;;;;;;;14.48;4.43;;;20.30;39.90;;;;;;5053841;28;20122;-61
2021/10/28 06:54:26;;;;;;;;;;;20.30;40.10;;;;;;5053612;28;20069;-61
2021/10/28 07:02:16;;;;;;;20.85;4.68;;;20.20;39.90;;;;;;5071973;28;20187;-62
2021/10/28 07:04:43;;;;;;;25.13;4.50;;;20.30;40.40;;;;;;5071092;28;20555;-64
2021/10/28 07:07:10;;;;;;;20.80;4.93;;;20.30;40.10;;;;;;5071465;28;20221;-62
2021/10/28 07:09:39;;;;;;;23.40;6.10;;;;;;;;;;5069581;28;20067;-62
2021/10/28 07:14:36;;;;;;;18.25;5.20;;;20.20;39.30;;;;;;5071852;28;20161;-63
2021/10/28 07:20:06;;;;;;;15.02;3.60;;;20.20;39.50;;;;;;5070571;28;20088;-62
2021/10/28 07:25:25;;;;;;;21.48;2.80;;;20.60;60.10;;;;;;5070919;28;20105;-63
2021/10/28 07:33:35;;;;;;;8.60;2.13;;;20.30;44.30;;;;;;5073615;28;20076;-62
2021/10/28 08:13:53;;;;;;;3.97;0.90;;;20.80;56.80;;;;;;5070434;28;20035;-64
2021/10/28 08:18:58;;;;;;;4.07;1.10;;;20.90;38.10;;;;;;5070460;28;20089;-62
2021/10/28 08:21:30;;;;;;;3.35;1.10;;;20.40;40.70;;;;;;5068114;28;21407;-64
2021/10/28 08:29:34;;;;;;;4.32;1.70;;;20.70;43.20;;;;;;5068816;28;20429;-63
2021/10/28 08:32:03;;;;;;;10.38;2.30;;;20.70;37.90;;;;;;5069684;28;20096;-63
2021/10/28 08:34:32;;;;;;;4.70;1.73;;;20.30;57.00;;;;;;5070749;28;20017;-62
2021/10/28 08:37:10;;;;;;;6.50;2.00;;;20.50;47.50;;;;;;5072612;28;20076;-61
2021/10/28 08:39:48;;;;;;;3.17;1.52;;;20.40;34.80;;;;;;5067761;28;20155;-63
2021/10/28 08:42:17;;;;;;;5.30;1.70;;;20.60;44.70;;;;;;5068526;28;20092;-63
2021/10/28 08:44:49;;;;;;;9.65;2.17;;;20.50;35.10;;;;;;5054715;28;20407;-62
2021/10/28 08:47:17;;;;;;;5.88;1.63;;;20.90;62.10;;;;;;5054651;28;20497;-64
2021/10/28 08:50:06;;;;;;;6.60;1.70;;;20.00;42.10;;;;;;5073496;28;20091;-64
2021/10/28 08:55:08;;;;;;;4.13;1.65;;;20.10;43.70;;;;;;5075482;28;20029;-63
2021/10/28 09:19:26;;;;;;;9.27;1.75;;;20.00;42.80;;;;;;5074130;28;20040;-62
2021/10/28 09:26:26;;;;;;;7.60;2.47;;;19.70;72.60;;;;;;5075818;28;20032;-63
2021/10/28 09:31:54;;;;;;;11.70;2.60;;;19.70;36.00;;;;;;5074363;28;20092;-60
2021/10/28 09:34:31;;;;;;;11.80;2.28;;;19.40;47.40;;;;;;5073146;28;20099;-61
2021/10/28 09:48:34;;;;;;;10.45;3.15;;;19.70;36.70;;;;;;5076782;28;20511;-61
2021/10/28 09:51:03;;;;;;;16.35;2.53;;;19.70;36.40;;;;;;5072025;28;20080;-61
2021/10/28 09:53:45;;;;;;;11.57;2.83;;;19.70;36.20;;;;;;5054573;28;20080;-63
2021/10/28 09:59:06;;;;;;;7.32;2.90;;;19.70;37.10;;;;;;5073400;28;20482;-63
2021/10/28 10:01:45;;;;;;;11.23;4.45;;;19.60;37.30;;;;;;5056130;28;20159;-61
2021/10/28 10:04:12;;;;;;;12.82;5.78;;;19.60;36.20;;;;;;5072635;28;20095;-62
2021/10/28 10:06:42;;;;;;;19.80;6.05;;;19.60;36.30;;;;;;5071353;28;20159;-63
2021/10/28 10:09:09;;;;;;;16.17;5.60;;;19.60;36.80;;;;;;5075773;28;20080;-63
2021/10/28 10:11:35;;;;;;;10.43;5.35;;;;;;;;;;5071658;28;20487;-63
2021/10/28 10:14:02;;;;;;;11.48;4.85;;;19.40;36.60;;;;;;5056896;28;20091;-62
2021/10/28 10:16:30;;;;;;;15.05;4.43;;;19.60;37.10;;;;;;5054139;28;20081;-63
2021/10/28 10:18:59;;;;;;;16.85;4.20;;;19.60;37.70;;;;;;5069975;28;20191;-61
2021/10/28 10:27:48;;;;;;;21.40;7.07;;;19.40;37.90;;;;;;5017943;28;20065;-61
2021/10/28 12:17:03;;;;;;;10.25;2.90;;;18.50;42.20;;;;;;5070444;28;20036;-62
2021/10/28 12:25:18;;;;;;;12.07;2.65;;;18.40;79.70;;;;;;5074556;28;20102;-62
2021/10/28 13:35:08;;;;;;;14.35;2.13;;;17.40;70.00;;;;;;5076565;28;20175;-62
2021/10/28 13:54:58;;;;;;;30.58;8.55;;;17.70;48.20;;;;;;5074046;28;20073;-64
2021/10/28 14:31:42;;;;;;;25.15;2.90;;;17.80;50.10;;;;;;5123634;27;20082;-62
2021/10/28 14:39:26;;;;;;;14.98;2.58;;;17.90;49.10;;;;;;5119804;27;20071;-61
2021/10/28 15:28:44;;;;;;;38.05;4.05;;;19.70;45.80;;;;;;5068255;28;20072;-63
2021/10/28 16:00:21;;;;;;;14.10;2.28;;;23.90;36.10;;;;;;5066555;28;20207;-62
2021/10/28 16:22:03;;;;;;;13.95;1.58;;;;;;;;;;5051517;28;20028;-60
2021/10/28 16:24:32;;;;;;;12.00;1.75;;;29.20;32.60;;;;;;5021295;28;20018;-62
2021/10/28 16:26:59;;;;;;;17.35;1.88;;;29.30;29.10;;;;;;5017864;28;20190;-62
2021/10/28 16:29:26;;;;;;;12.02;1.52;;;29.90;28.70;;;;;;5039241;28;20072;-61
2021/10/28 16:31:54;;;;;;;11.02;1.52;;;30.40;28.30;;;;;;5050635;28;20081;-61
2021/10/28 16:34:20;;;;;;;12.27;1.83;;;30.80;31.20;;;;;;5051027;28;20084;-62
2021/10/28 16:36:48;;;;;;;14.23;1.88;;;;;;;;;;5033178;28;20085;-60
2021/10/28 16:39:14;;;;;;;11.05;1.40;;;;;;;;;;5033182;28;20020;-61
2021/10/28 16:41:48;;;;;;;18.20;1.35;;;;;;;;;;5040228;28;20423;-61
